Latest Coastal Weather Observations for Rottnest Island

IDW60701

Issued at 3:25 am WST Thursday 31 July 2014 (issued every 10 minutes, with the page automatically refreshed every 10 minutes)

About coastal observations | Map of coastal stations | Coastal observations for WA | Marine services | Other Formats
Station Details ID: 009193 Name: ROTTNEST ISLAND Lat: -32.01 Lon: 115.50 Height: 43.1 m
Data from the previous 72 hours. | See also: Recent months at Rottnest Island
Date/Time
WST
Temp

°C
Wind Pressure Rain
since 9am
mm
Weather Cloud Vis
km
Sea
Height
m
Swell
Dir
 
Speed
knots
Gust
knots
hPa Trend Height
m
Period
s
Dir
31/03:00am 14.7 S 26 31 1022.6 - 0.6 - - - - - - -
31/02:30am 15.0 S 25 30 1022.3 - 0.6 - - - - - - -
31/02:00am 15.0 S 24 32 1022.3 - 0.6 - - - - - - -
31/01:30am 15.1 S 24 32 1022.0 - 0.6 - - - - - - -
31/01:00am 14.8 S 24 31 1022.0 - 0.6 - - - - - - -
31/12:43am 15.5 S 18 29 1022.0 - 0.6 - - - - - - -
31/12:30am 14.6 S 22 28 1022.4 - 0.6 - - - - - - -
31/12:21am 15.5 SW 17 27 1022.5 - 0.6 - - - - - - -
31/12:00am 15.0 SSW 17 26 1022.3 - 0.6 - - - - - - -
 
Date/Time
WST
Temp

°C
Wind Pressure Rain
since 9am
mm
Weather Cloud Vis
km
Sea
Height
m
Swell
Dir
 
Speed
knots
Gust
knots
hPa Trend Height
m
Period
s
Dir
30/11:57pm 15.4 SSW 15 26 1022.3 - 0.6 - - - - - - -
30/11:30pm 15.5 S 12 19 1022.3 - 0.6 - - - - - - -
30/11:12pm 15.2 SSW 15 25 1022.4 - 0.6 - - - - - - -
30/11:00pm 15.1 SSW 19 25 1022.5 - 0.6 - - - - - - -
30/10:30pm 15.5 SW 15 19 1022.3 - 0.6 - - - - - - -
30/10:00pm 15.6 SW 17 21 1022.2 - 0.6 - - - - - - -
30/09:30pm 15.5 SW 15 19 1022.2 - 0.6 - - - - - - -
30/09:00pm 15.3 SW 16 21 1022.2 - 0.6 - - - - - - -
30/08:30pm 15.4 SW 18 22 1022.2 - 0.6 - - - - - - -
30/08:00pm 15.6 SW 19 24 1022.0 - 0.6 - - - - - - -
30/07:30pm 15.4 W 12 16 1022.0 - 0.4 - - - - - - -
30/07:00pm 14.5 WSW 16 23 1022.1 - 0.4 - - - - - - -
30/06:30pm 16.3 WSW 15 19 1021.9 - 0.0 - - - - - - -
30/06:00pm 16.8 W 13 19 1021.6 - 0.0 - - - - - - -
30/05:30pm 16.9 W 14 19 1021.6 - 0.0 - - - - - - -
30/05:00pm 17.1 W 14 18 1021.6 - 0.0 - - - - - - -
30/04:30pm 17.3 WSW 12 17 1021.4 - 0.0 - - - - - - -
30/04:00pm 17.6 W 14 18 1021.4 - 0.0 - - - - - - -
30/03:30pm 17.4 W 14 19 1021.4 - 0.0 - - - - - - -
30/03:00pm 17.5 W 16 22 1021.4 - 0.0 - - - - - - -
30/02:30pm 17.6 W 16 21 1021.1 - 0.0 - - - - - - -
30/02:00pm 17.7 W 15 19 1021.1 - 0.0 - - - - - - -
30/01:30pm 17.6 W 15 20 1021.3 - 0.0 - - - - - - -
30/01:00pm 17.6 W 14 19 1021.4 - 0.0 - - - - - - -
30/12:30pm 17.6 W 14 17 1021.4 - 0.0 - - - - - - -
30/12:00pm 17.0 WNW 15 20 1021.7 - 0.0 - - - - - - -
30/11:30am 17.0 WNW 13 17 1021.8 - 0.0 - - - - - - -
30/11:00am 16.9 WNW 14 18 1022.2 - 0.0 - - - - - - -
30/10:30am 16.7 WNW 13 17 1022.4 - 0.0 - - - - - - -
30/10:00am 16.7 W 15 20 1022.6 - 0.0 - - - - - - -
30/09:30am 16.6 W 13 19 1022.5 - 0.0 - - - - - - -
30/09:00am 16.5 W 13 17 1022.2 - 0.0 - - - - - - -
30/08:30am 16.4 W 12 16 1022.0 - 0.0 - - - - - - -
30/08:00am 16.5 NW 13 15 1021.8 - 0.0 - - - - - - -
30/07:30am 16.3 W 12 16 1021.6 - 0.0 - - - - - - -
30/07:00am 16.3 WNW 13 18 1021.6 - 0.0 - - - - - - -
30/06:30am 16.4 W 13 18 1021.6 - 0.0 - - - - - - -
30/06:00am 16.3 W 13 17 1021.5 - 0.0 - - - - - - -
30/05:30am 16.3 WNW 14 19 1021.5 - 0.0 - - - - - - -
30/05:00am 16.3 WNW 15 19 1021.5 - 0.0 - - - - - - -
30/04:30am 16.4 W 9 13 1021.4 - 0.0 - - - - - - -
30/04:00am 16.5 W 13 17 1021.5 - 0.0 - - - - - - -
30/03:30am 16.5 W 13 18 1021.6 - 0.0 - - - - - - -
30/03:00am 16.4 W 13 19 1021.8 - 0.0 - - - - - - -
30/02:30am 16.3 WNW 13 17 1022.0 - 0.0 - - - - - - -
30/02:00am 16.4 WNW 12 15 1022.4 - 0.0 - - - - - - -
30/01:30am 16.2 W 13 17 1022.8 - 0.0 - - - - - - -
30/01:00am 16.3 WNW 14 21 1022.7 - 0.0 - - - - - - -
30/12:30am 16.3 WNW 15 20 1022.8 - 0.0 - - - - - - -
30/12:00am 16.4 WNW 12 16 1022.9 - 0.0 - - - - - - -
 
Date/Time
WST
Temp

°C
Wind Pressure Rain
since 9am
mm
Weather Cloud Vis
km
Sea
Height
m
Swell
Dir
 
Speed
knots
Gust
knots
hPa Trend Height
m
Period
s
Dir
29/11:30pm 16.4 WNW 16 20 1023.1 - 0.0 - - - - - - -
29/11:00pm 16.5 NW 10 14 1023.1 - 0.0 - - - - - - -
29/10:30pm 16.5 WNW 12 16 1023.2 - 0.0 - - - - - - -
29/10:00pm 16.5 WNW 13 18 1023.1 - 0.0 - - - - - - -
29/09:30pm 16.3 W 9 13 1023.2 - 0.0 - - - - - - -
29/09:00pm 16.4 W 13 18 1023.2 - 0.0 - - - - - - -
29/08:30pm 16.6 W 13 17 1023.3 - 0.0 - - - - - - -
29/08:00pm 16.5 W 13 17 1023.2 - 0.0 - - - - - - -
29/07:30pm 16.5 WNW 11 14 1023.2 - 0.0 - - - - - - -
29/07:00pm 16.3 WNW 13 17 1023.3 - 0.0 - - - - - - -
29/06:30pm 16.4 WNW 14 17 1023.3 - 0.0 - - - - - - -
29/06:00pm 16.5 WNW 14 19 1023.1 - 0.0 - - - - - - -
29/05:30pm 16.5 WNW 15 20 1022.8 - 0.0 - - - - - - -
29/05:00pm 17.1 W 13 16 1022.7 - 0.0 - - - - - - -
29/04:30pm 17.0 W 14 17 1022.8 - 0.0 - - - - - - -
29/04:00pm 18.2 WNW 9 12 1022.6 - 0.0 - - - - - - -
29/03:30pm 16.0 NW 16 18 1022.9 - 0.0 - - - - - - -
29/03:00pm 17.6 W 13 16 1022.8 - 0.0 - - - - - - -
29/02:30pm 18.2 WNW 14 18 1022.8 - 0.0 - - - - - - -
29/02:00pm 18.3 W 13 17 1022.7 - 0.0 - - - - - - -
29/01:30pm 18.0 W 14 19 1022.9 - 0.0 - - - - - - -
29/01:00pm 16.8 NW 9 14 1023.0 - 0.0 - - - - - - -
29/12:30pm 17.6 W 10 14 1023.2 - 0.0 - - - - - - -
29/12:00pm 17.6 W 10 14 1023.4 - 0.0 - - - - - - -
29/11:30am 17.5 WNW 12 14 1023.7 - 0.0 - - - - - - -
29/11:00am 17.9 WNW 14 17 1023.9 - 0.0 - - - - - - -
29/10:30am 17.5 W 13 17 1024.2 - 0.0 - - - - - - -
29/10:00am 17.2 W 14 19 1024.4 - 0.0 - - - - - - -
29/09:30am 17.1 W 13 17 1024.4 - 0.0 - - - - - - -
29/09:00am 16.2 W 15 21 1024.3 - 0.0 - - - - - - -
29/08:30am 16.3 W 11 15 1023.8 - 0.0 - - - - - - -
29/08:00am 15.9 WSW 11 15 1023.5 - 0.0 - - - - - - -
29/07:30am 15.3 WSW 12 17 1023.1 - 0.0 - - - - - - -
29/07:00am 15.8 WSW 13 17 1022.8 - 0.0 - - - - - - -
29/06:30am 16.0 W 16 22 1022.6 - 0.0 - - - - - - -
29/06:00am 16.5 W 10 17 1022.3 - 0.0 - - - - - - -
29/05:30am 16.6 W 14 18 1022.2 - 0.0 - - - - - - -
29/05:00am 16.3 W 13 19 1022.0 - 0.0 - - - - - - -
29/04:30am 16.5 W 11 17 1022.1 - 0.0 - - - - - - -
29/04:00am 16.7 W 14 19 1022.1 - 0.0 - - - - - - -
29/03:30am 16.7 W 13 16 1022.1 - 0.0 - - - - - - -
29/03:00am 16.4 W 14 17 1022.3 - 0.0 - - - - - - -
29/02:30am 16.4 W 13 17 1022.3 - 0.0 - - - - - - -
29/02:00am 16.6 W 13 17 1022.3 - 0.0 - - - - - - -
29/01:30am 16.6 WNW 15 19 1022.5 - 0.0 - - - - - - -
29/01:00am 16.7 W 14 19 1022.7 - 0.0 - - - - - - -
29/12:30am 16.8 W 14 19 1022.8 - 0.0 - - - - - - -
29/12:00am 16.7 W 13 18 1022.6 - 0.0 - - - - - - -
 
Date/Time
WST
Temp

°C
Wind Pressure Rain
since 9am
mm
Weather Cloud Vis
km
Sea
Height
m
Swell
Dir
 
Speed
knots
Gust
knots
hPa Trend Height
m
Period
s
Dir
28/11:30pm 16.5 W 13 17 1022.8 - 0.0 - - - - - - -
28/11:00pm 16.7 W 13 19 1022.9 - 0.0 - - - - - - -
28/10:30pm 16.6 W 15 19 1023.2 - 0.0 - - - - - - -
28/10:00pm 16.7 W 15 18 1023.2 - 0.0 - - - - - - -
28/09:30pm 16.7 W 15 19 1023.4 - 0.0 - - - - - - -
28/09:00pm 16.1 WSW 14 20 1023.3 - 0.0 - - - - - - -
28/08:30pm 16.7 W 15 19 1023.2 - 0.0 - - - - - - -
28/08:00pm 16.4 W 13 21 1023.2 - 0.0 - - - - - - -
28/07:30pm 16.3 W 14 20 1023.3 - 0.0 - - - - - - -
28/07:00pm 16.2 W 13 17 1023.0 - 0.0 - - - - - - -
28/06:30pm 16.4 W 15 21 1022.8 - 0.0 - - - - - - -
28/06:00pm 16.1 W 17 23 1022.6 - 0.0 - - - - - - -
28/05:30pm 16.9 W 17 21 1022.2 - 0.0 - - - - - - -
28/05:00pm 17.0 W 15 20 1022.3 - 0.0 - - - - - - -
28/04:30pm 16.8 W 14 19 1022.2 - 0.0 - - - - - - -
28/04:00pm 17.5 WNW 16 21 1021.9 - 0.0 - - - - - - -
28/03:30pm 17.8 WNW 15 19 1021.7 - 0.0 - - - - - - -
28/03:00pm 17.9 WNW 15 19 1021.6 - 0.0 - - - - - - -
28/02:30pm 18.7 WNW 15 17 1021.9 - 0.0 - - - - - - -
28/02:00pm 18.8 WNW 16 19 1022.1 - 0.0 - - - - - - -
28/01:30pm 18.7 WNW 16 20 1022.3 - 0.0 - - - - - - -
28/01:00pm 18.3 W 17 20 1022.5 - 0.0 - - - - - - -
28/12:30pm 18.4 W 16 20 1023.0 - 0.0 - - - - - - -
28/12:00pm 18.5 W 15 20 1023.3 - 0.0 - - - - - - -
28/11:30am 17.7 WSW 13 17 1023.5 - 0.0 - - - - - - -
28/11:00am 18.3 W 16 20 1023.6 - 0.0 - - - - - - -
28/10:30am 17.8 W 16 22 1023.6 - 0.0 - - - - - - -
28/10:00am 16.9 W 16 22 1023.6 - 0.0 - - - - - - -
28/09:30am 17.1 WNW 17 21 1023.3 - 0.0 - - - - - - -
28/09:00am 16.4 W 14 18 1023.1 - 0.6 - - - - - - -
28/08:30am 16.1 W 16 22 1022.9 - 0.6 - - - - - - -
28/08:00am 15.5 WSW 13 19 1022.4 - 0.6 - - - - - - -
28/07:30am 15.3 WSW 13 18 1022.1 - 0.4 - - - - - - -
28/07:00am 14.9 W 16 23 1022.0 - 0.4 - - - - - - -
28/06:30am 15.9 W 15 22 1021.8 - 0.4 - - - - - - -
28/06:00am 15.9 W 17 21 1021.6 - 0.4 - - - - - - -
28/05:30am 16.0 W 16 23 1021.4 - 0.4 - - - - - - -
28/05:00am 16.3 W 17 22 1021.5 - 0.4 - - - - - - -
28/04:30am 15.9 W 13 20 1021.5 - 0.4 - - - - - - -
28/04:00am 16.1 W 17 23 1021.4 - 0.4 - - - - - - -
28/03:30am 16.4 W 18 25 1021.7 - 0.4 - - - - - - -

Other Formats:

Comma delimited format used in spreadsheet applications
http://www.bom.gov.au/fwo/IDW60701/IDW60701.94602.axf

JavaScript Object Notation format (JSON) in row-major order
http://www.bom.gov.au/fwo/IDW60701/IDW60701.94602.json